sensor_id;sensor_type;location;lat;lon;timestamp;pressure;altitude;pressure_sealevel;temperature;humidity
33414;BME280;60055;41.884;12.534;2023-04-28T00:01:07;101405.13;;;16.44;50.00
33414;BME280;60055;41.884;12.534;2023-04-28T00:03:32;101397.19;;;16.43;49.55
33414;BME280;60055;41.884;12.534;2023-04-28T00:05:57;101395.31;;;16.45;49.83
33414;BME280;60055;41.884;12.534;2023-04-28T00:08:23;101409.25;;;16.50;49.61
33414;BME280;60055;41.884;12.534;2023-04-28T00:10:51;101401.38;;;16.48;49.23
33414;BME280;60055;41.884;12.534;2023-04-28T00:13:16;101406.75;;;16.47;49.26
33414;BME280;60055;41.884;12.534;2023-04-28T00:15:42;101402.13;;;16.50;49.59
33414;BME280;60055;41.884;12.534;2023-04-28T00:18:07;101400.50;;;16.48;48.68
33414;BME280;60055;41.884;12.534;2023-04-28T00:20:32;101398.91;;;16.44;48.91
33414;BME280;60055;41.884;12.534;2023-04-28T00:22:58;101391.75;;;16.27;49.22
33414;BME280;60055;41.884;12.534;2023-04-28T00:25:23;101395.03;;;16.15;49.85
33414;BME280;60055;41.884;12.534;2023-04-28T00:27:49;101392.22;;;16.18;49.76
33414;BME280;60055;41.884;12.534;2023-04-28T00:30:14;101388.16;;;16.28;49.79
33414;BME280;60055;41.884;12.534;2023-04-28T00:32:40;101395.28;;;16.27;49.73
33414;BME280;60055;41.884;12.534;2023-04-28T00:35:05;101392.88;;;16.40;49.70
33414;BME280;60055;41.884;12.534;2023-04-28T00:37:35;101389.50;;;16.36;49.46
33414;BME280;60055;41.884;12.534;2023-04-28T00:40:00;101390.88;;;16.26;49.76
33414;BME280;60055;41.884;12.534;2023-04-28T00:42:26;101387.13;;;16.30;49.78
33414;BME280;60055;41.884;12.534;2023-04-28T00:44:51;101388.38;;;16.23;49.46
33414;BME280;60055;41.884;12.534;2023-04-28T00:47:17;101391.84;;;16.25;49.81
33414;BME280;60055;41.884;12.534;2023-04-28T00:49:43;101388.56;;;16.19;49.83
33414;BME280;60055;41.884;12.534;2023-04-28T00:52:09;101396.88;;;16.31;49.70
33414;BME280;60055;41.884;12.534;2023-04-28T00:54:35;101393.22;;;16.32;49.83
33414;BME280;60055;41.884;12.534;2023-04-28T00:57:01;101397.13;;;16.08;50.61
33414;BME280;60055;41.884;12.534;2023-04-28T00:59:28;101393.50;;;16.09;50.04
33414;BME280;60055;41.884;12.534;2023-04-28T01:01:54;101394.00;;;16.17;49.90
33414;BME280;60055;41.884;12.534;2023-04-28T01:04:20;101390.84;;;16.09;50.96
33414;BME280;60055;41.884;12.534;2023-04-28T01:06:47;101400.34;;;16.15;50.52
33414;BME280;60055;41.884;12.534;2023-04-28T01:09:13;101395.22;;;16.10;49.61
33414;BME280;60055;41.884;12.534;2023-04-28T01:11:38;101382.06;;;16.07;49.29
33414;BME280;60055;41.884;12.534;2023-04-28T01:14:04;101394.06;;;16.16;49.41
33414;BME280;60055;41.884;12.534;2023-04-28T01:16:30;101404.72;;;16.16;49.43
33414;BME280;60055;41.884;12.534;2023-04-28T01:18:57;101396.81;;;16.14;48.88
33414;BME280;60055;41.884;12.534;2023-04-28T01:21:26;101404.31;;;16.06;49.24
33414;BME280;60055;41.884;12.534;2023-04-28T01:23:57;101409.06;;;16.00;49.40
33414;BME280;60055;41.884;12.534;2023-04-28T01:26:23;101402.72;;;16.02;49.38
33414;BME280;60055;41.884;12.534;2023-04-28T01:28:48;101406.25;;;16.03;50.05
33414;BME280;60055;41.884;12.534;2023-04-28T01:31:14;101403.16;;;15.93;49.81
33414;BME280;60055;41.884;12.534;2023-04-28T01:33:39;101403.81;;;15.98;50.02
33414;BME280;60055;41.884;12.534;2023-04-28T01:36:05;101404.97;;;15.93;50.07
33414;BME280;60055;41.884;12.534;2023-04-28T01:38:30;101407.19;;;15.83;50.34
33414;BME280;60055;41.884;12.534;2023-04-28T01:40:56;101398.69;;;15.75;50.30
33414;BME280;60055;41.884;12.534;2023-04-28T01:43:22;101400.13;;;15.82;50.21
33414;BME280;60055;41.884;12.534;2023-04-28T01:45:48;101405.03;;;15.72;50.79
33414;BME280;60055;41.884;12.534;2023-04-28T01:48:13;101408.41;;;15.76;50.98
33414;BME280;60055;41.884;12.534;2023-04-28T01:50:38;101413.38;;;15.83;50.80
33414;BME280;60055;41.884;12.534;2023-04-28T01:53:04;101416.09;;;15.82;51.17
33414;BME280;60055;41.884;12.534;2023-04-28T01:55:29;101415.28;;;15.81;51.07
33414;BME280;60055;41.884;12.534;2023-04-28T01:57:55;101413.53;;;15.80;50.86
33414;BME280;60055;41.884;12.534;2023-04-28T02:00:22;101413.25;;;15.68;50.87
33414;BME280;60055;41.884;12.534;2023-04-28T02:02:48;101422.31;;;15.64;50.69
33414;BME280;60055;41.884;12.534;2023-04-28T02:05:14;101418.19;;;15.57;50.95
33414;BME280;60055;41.884;12.534;2023-04-28T02:07:39;101413.72;;;15.57;50.67
33414;BME280;60055;41.884;12.534;2023-04-28T02:10:06;101412.28;;;15.50;51.51
33414;BME280;60055;41.884;12.534;2023-04-28T02:12:32;101411.75;;;15.22;52.13
33414;BME280;60055;41.884;12.534;2023-04-28T02:14:57;101417.75;;;15.27;52.06
33414;BME280;60055;41.884;12.534;2023-04-28T02:17:23;101415.59;;;15.15;51.90
33414;BME280;60055;41.884;12.534;2023-04-28T02:19:53;101424.25;;;15.20;51.97
33414;BME280;60055;41.884;12.534;2023-04-28T02:22:20;101417.16;;;15.20;51.78
33414;BME280;60055;41.884;12.534;2023-04-28T02:24:45;101422.53;;;15.19;51.40
33414;BME280;60055;41.884;12.534;2023-04-28T02:27:11;101426.50;;;15.29;51.48
33414;BME280;60055;41.884;12.534;2023-04-28T02:29:37;101429.78;;;15.15;52.57
33414;BME280;60055;41.884;12.534;2023-04-28T02:32:03;101421.75;;;15.17;52.31
33414;BME280;60055;41.884;12.534;2023-04-28T02:34:28;101426.72;;;15.04;52.51
33414;BME280;60055;41.884;12.534;2023-04-28T02:36:54;101433.13;;;15.00;52.50
33414;BME280;60055;41.884;12.534;2023-04-28T02:39:19;101430.31;;;15.03;52.90
33414;BME280;60055;41.884;12.534;2023-04-28T02:41:46;101422.53;;;14.99;53.12
33414;BME280;60055;41.884;12.534;2023-04-28T02:44:12;101423.41;;;14.99;53.13
33414;BME280;60055;41.884;12.534;2023-04-28T02:46:37;101424.59;;;15.12;53.75
33414;BME280;60055;41.884;12.534;2023-04-28T02:49:03;101425.88;;;15.04;55.02
33414;BME280;60055;41.884;12.534;2023-04-28T02:51:28;101427.44;;;15.08;55.02
33414;BME280;60055;41.884;12.534;2023-04-28T02:53:53;101427.88;;;14.77;57.04
33414;BME280;60055;41.884;12.534;2023-04-28T02:56:19;101434.72;;;14.41;57.51
33414;BME280;60055;41.884;12.534;2023-04-28T02:58:45;101435.22;;;14.50;57.77
33414;BME280;60055;41.884;12.534;2023-04-28T03:01:10;101444.66;;;14.57;57.82
33414;BME280;60055;41.884;12.534;2023-04-28T03:03:36;101444.44;;;14.42;55.71
33414;BME280;60055;41.884;12.534;2023-04-28T03:06:01;101444.44;;;14.42;55.84
33414;BME280;60055;41.884;12.534;2023-04-28T03:08:26;101450.41;;;14.47;56.47
33414;BME280;60055;41.884;12.534;2023-04-28T03:10:52;101444.19;;;14.48;57.66
33414;BME280;60055;41.884;12.534;2023-04-28T03:13:17;101444.78;;;14.54;57.88
33414;BME280;60055;41.884;12.534;2023-04-28T03:15:43;101455.91;;;14.64;57.42
33414;BME280;60055;41.884;12.534;2023-04-28T03:18:08;101458.09;;;14.54;58.37
33414;BME280;60055;41.884;12.534;2023-04-28T03:20:33;101455.03;;;14.63;58.03
33414;BME280;60055;41.884;12.534;2023-04-28T03:22:59;101458.81;;;14.58;57.91
33414;BME280;60055;41.884;12.534;2023-04-28T03:25:26;101457.81;;;14.60;57.73
33414;BME280;60055;41.884;12.534;2023-04-28T03:27:51;101463.22;;;14.59;58.29
33414;BME280;60055;41.884;12.534;2023-04-28T03:30:16;101461.78;;;14.50;57.73
33414;BME280;60055;41.884;12.534;2023-04-28T03:32:42;101465.75;;;14.40;58.68
33414;BME280;60055;41.884;12.534;2023-04-28T03:35:07;101456.44;;;14.28;58.52
33414;BME280;60055;41.884;12.534;2023-04-28T03:37:33;101461.63;;;14.31;58.25
33414;BME280;60055;41.884;12.534;2023-04-28T03:39:58;101457.75;;;14.18;58.39
33414;BME280;60055;41.884;12.534;2023-04-28T03:42:24;101456.22;;;14.35;58.13
33414;BME280;60055;41.884;12.534;2023-04-28T03:44:49;101450.56;;;14.20;58.68
33414;BME280;60055;41.884;12.534;2023-04-28T03:47:15;101455.91;;;13.97;59.62
33414;BME280;60055;41.884;12.534;2023-04-28T03:49:40;101461.31;;;14.17;58.20
33414;BME280;60055;41.884;12.534;2023-04-28T03:52:05;101457.63;;;14.21;58.05
33414;BME280;60055;41.884;12.534;2023-04-28T03:54:31;101452.75;;;14.32;57.41
33414;BME280;60055;41.884;12.534;2023-04-28T03:56:56;101461.19;;;14.20;57.74
33414;BME280;60055;41.884;12.534;2023-04-28T03:59:22;101449.94;;;14.14;57.15
33414;BME280;60055;41.884;12.534;2023-04-28T04:01:48;101463.28;;;14.12;56.89
33414;BME280;60055;41.884;12.534;2023-04-28T04:04:13;101460.28;;;14.21;56.74
33414;BME280;60055;41.884;12.534;2023-04-28T04:06:39;101454.75;;;14.04;56.79
33414;BME280;60055;41.884;12.534;2023-04-28T04:09:04;101458.91;;;14.11;56.94
33414;BME280;60055;41.884;12.534;2023-04-28T04:11:29;101453.47;;;14.14;56.83
33414;BME280;60055;41.884;12.534;2023-04-28T04:13:55;101448.16;;;14.14;57.06
33414;BME280;60055;41.884;12.534;2023-04-28T04:16:20;101453.09;;;14.23;56.78
33414;BME280;60055;41.884;12.534;2023-04-28T04:18:46;101457.78;;;14.17;56.67
33414;BME280;60055;41.884;12.534;2023-04-28T04:21:12;101452.75;;;14.32;56.30
33414;BME280;60055;41.884;12.534;2023-04-28T04:23:37;101450.75;;;14.39;55.95
33414;BME280;60055;41.884;12.534;2023-04-28T04:26:02;101458.03;;;14.34;56.56
33414;BME280;60055;41.884;12.534;2023-04-28T04:28:28;101467.78;;;14.33;56.61
33414;BME280;60055;41.884;12.534;2023-04-28T04:30:53;101460.94;;;14.26;57.09
33414;BME280;60055;41.884;12.534;2023-04-28T04:33:18;101460.72;;;14.32;56.42
33414;BME280;60055;41.884;12.534;2023-04-28T04:35:44;101467.59;;;14.38;56.47
33414;BME280;60055;41.884;12.534;2023-04-28T04:38:09;101460.00;;;14.06;58.14
33414;BME280;60055;41.884;12.534;2023-04-28T04:40:35;101459.03;;;14.08;57.41
33414;BME280;60055;41.884;12.534;2023-04-28T04:43:00;101463.97;;;14.17;56.45
33414;BME280;60055;41.884;12.534;2023-04-28T04:45:26;101467.75;;;14.12;56.76
33414;BME280;60055;41.884;12.534;2023-04-28T04:47:52;101476.44;;;14.15;56.08
33414;BME280;60055;41.884;12.534;2023-04-28T04:50:17;101468.66;;;14.11;56.38
33414;BME280;60055;41.884;12.534;2023-04-28T04:52:43;101467.66;;;14.13;56.68
33414;BME280;60055;41.884;12.534;2023-04-28T04:55:08;101464.34;;;14.08;56.26
33414;BME280;60055;41.884;12.534;2023-04-28T04:57:35;101464.78;;;14.43;55.42
33414;BME280;60055;41.884;12.534;2023-04-28T05:00:01;101465.13;;;14.55;54.52
33414;BME280;60055;41.884;12.534;2023-04-28T05:02:26;101470.88;;;14.66;54.09
33414;BME280;60055;41.884;12.534;2023-04-28T05:04:52;101464.88;;;14.83;52.51
33414;BME280;60055;41.884;12.534;2023-04-28T05:07:17;101468.34;;;15.25;51.46
33414;BME280;60055;41.884;12.534;2023-04-28T05:09:43;101474.88;;;15.59;51.19
33414;BME280;60055;41.884;12.534;2023-04-28T05:12:08;101477.44;;;15.80;49.46
33414;BME280;60055;41.884;12.534;2023-04-28T05:14:33;101490.56;;;16.04;49.48
33414;BME280;60055;41.884;12.534;2023-04-28T05:16:59;101486.09;;;16.23;48.67
33414;BME280;60055;41.884;12.534;2023-04-28T05:19:24;101496.34;;;16.13;48.45
33414;BME280;60055;41.884;12.534;2023-04-28T05:21:50;101502.81;;;16.26;47.83
33414;BME280;60055;41.884;12.534;2023-04-28T05:24:20;101500.56;;;16.55;46.50
33414;BME280;60055;41.884;12.534;2023-04-28T05:26:48;101501.44;;;16.74;45.92
33414;BME280;60055;41.884;12.534;2023-04-28T05:29:13;101501.06;;;16.81;45.61
33414;BME280;60055;41.884;12.534;2023-04-28T05:31:38;101500.03;;;16.84;45.29
33414;BME280;60055;41.884;12.534;2023-04-28T05:34:04;101506.22;;;16.84;43.98
33414;BME280;60055;41.884;12.534;2023-04-28T05:36:30;101511.28;;;17.08;44.54
33414;BME280;60055;41.884;12.534;2023-04-28T05:38:56;101510.75;;;17.18;43.55
33414;BME280;60055;41.884;12.534;2023-04-28T05:41:21;101514.44;;;17.33;42.83
33414;BME280;60055;41.884;12.534;2023-04-28T05:43:47;101517.16;;;16.97;42.68
33414;BME280;60055;41.884;12.534;2023-04-28T05:46:15;101524.47;;;17.28;42.68
33414;BME280;60055;41.884;12.534;2023-04-28T05:48:41;101516.69;;;17.41;42.02
33414;BME280;60055;41.884;12.534;2023-04-28T05:51:06;101516.94;;;17.88;41.06
33414;BME280;60055;41.884;12.534;2023-04-28T05:53:31;101510.75;;;17.70;41.24
33414;BME280;60055;41.884;12.534;2023-04-28T05:55:57;101517.66;;;18.07;40.14
33414;BME280;60055;41.884;12.534;2023-04-28T05:58:22;101525.91;;;18.35;39.54
33414;BME280;60055;41.884;12.534;2023-04-28T06:00:49;101527.03;;;18.62;38.89
33414;BME280;60055;41.884;12.534;2023-04-28T06:03:14;101527.53;;;18.84;38.55
33414;BME280;60055;41.884;12.534;2023-04-28T06:05:43;101521.34;;;18.68;38.57
33414;BME280;60055;41.884;12.534;2023-04-28T06:08:09;101520.38;;;18.38;39.13
33414;BME280;60055;41.884;12.534;2023-04-28T06:10:34;101517.91;;;18.51;38.15
33414;BME280;60055;41.884;12.534;2023-04-28T06:12:59;101520.78;;;18.30;38.90
33414;BME280;60055;41.884;12.534;2023-04-28T06:15:26;101519.41;;;19.02;37.87
33414;BME280;60055;41.884;12.534;2023-04-28T06:17:52;101523.63;;;19.06;36.96
33414;BME280;60055;41.884;12.534;2023-04-28T06:20:17;101524.00;;;19.29;37.11
33414;BME280;60055;41.884;12.534;2023-04-28T06:22:43;101525.75;;;19.15;36.72
33414;BME280;60055;41.884;12.534;2023-04-28T06:25:08;101526.75;;;18.98;37.11
33414;BME280;60055;41.884;12.534;2023-04-28T06:27:34;101532.69;;;19.49;37.41
33414;BME280;60055;41.884;12.534;2023-04-28T06:29:59;101531.97;;;19.89;35.37
33414;BME280;60055;41.884;12.534;2023-04-28T06:32:25;101526.81;;;20.00;35.98
33414;BME280;60055;41.884;12.534;2023-04-28T06:34:50;101522.41;;;20.13;35.78
33414;BME280;60055;41.884;12.534;2023-04-28T06:37:15;101528.91;;;20.23;35.41
33414;BME280;60055;41.884;12.534;2023-04-28T06:39:41;101534.84;;;20.43;35.03
33414;BME280;60055;41.884;12.534;2023-04-28T06:42:07;101537.25;;;20.19;34.24
33414;BME280;60055;41.884;12.534;2023-04-28T06:44:32;101540.34;;;20.41;34.58
33414;BME280;60055;41.884;12.534;2023-04-28T06:46:58;101545.22;;;20.34;35.75
33414;BME280;60055;41.884;12.534;2023-04-28T06:49:23;101556.91;;;19.61;35.94
33414;BME280;60055;41.884;12.534;2023-04-28T06:51:49;101544.03;;;20.38;35.54
33414;BME280;60055;41.884;12.534;2023-04-28T06:54:14;101548.63;;;20.65;34.64
33414;BME280;60055;41.884;12.534;2023-04-28T06:56:40;101541.44;;;20.23;34.46
33414;BME280;60055;41.884;12.534;2023-04-28T06:59:06;101548.84;;;20.88;34.48
33414;BME280;60055;41.884;12.534;2023-04-28T07:01:32;101543.69;;;20.45;34.75
33414;BME280;60055;41.884;12.534;2023-04-28T07:03:57;101542.94;;;21.10;33.44
33414;BME280;60055;41.884;12.534;2023-04-28T07:06:23;101549.94;;;21.52;32.94
33414;BME280;60055;41.884;12.534;2023-04-28T07:08:48;101559.53;;;21.29;33.08
33414;BME280;60055;41.884;12.534;2023-04-28T07:11:14;101566.72;;;21.81;32.85
33414;BME280;60055;41.884;12.534;2023-04-28T07:13:40;101568.66;;;20.45;34.52
33414;BME280;60055;41.884;12.534;2023-04-28T07:16:06;101572.69;;;21.47;33.31
33414;BME280;60055;41.884;12.534;2023-04-28T07:18:32;101571.72;;;21.48;32.52
33414;BME280;60055;41.884;12.534;2023-04-28T07:20:57;101571.38;;;22.04;31.60
33414;BME280;60055;41.884;12.534;2023-04-28T07:23:22;101570.41;;;22.30;31.35
33414;BME280;60055;41.884;12.534;2023-04-28T07:25:48;101573.19;;;22.54;31.84
33414;BME280;60055;41.884;12.534;2023-04-28T07:28:13;101567.22;;;22.00;31.74
33414;BME280;60055;41.884;12.534;2023-04-28T07:30:39;101569.94;;;22.49;31.67
33414;BME280;60055;41.884;12.534;2023-04-28T07:33:04;101563.38;;;21.65;31.72
33414;BME280;60055;41.884;12.534;2023-04-28T07:35:30;101556.81;;;22.45;30.75
33414;BME280;60055;41.884;12.534;2023-04-28T07:37:55;101566.47;;;22.72;28.78
33414;BME280;60055;41.884;12.534;2023-04-28T07:40:22;101564.94;;;22.81;29.34
33414;BME280;60055;41.884;12.534;2023-04-28T07:45:13;101569.00;;;23.10;29.15
33414;BME280;60055;41.884;12.534;2023-04-28T07:47:40;101575.94;;;23.02;29.06
33414;BME280;60055;41.884;12.534;2023-04-28T07:50:06;101572.34;;;22.90;29.00
33414;BME280;60055;41.884;12.534;2023-04-28T07:52:32;101576.41;;;23.19;27.97
33414;BME280;60055;41.884;12.534;2023-04-28T07:54:58;101569.44;;;23.40;27.43
33414;BME280;60055;41.884;12.534;2023-04-28T07:57:24;101567.25;;;23.57;26.42
33414;BME280;60055;41.884;12.534;2023-04-28T07:59:51;101566.97;;;23.72;25.29
33414;BME280;60055;41.884;12.534;2023-04-28T08:02:16;101566.63;;;23.88;24.94
33414;BME280;60055;41.884;12.534;2023-04-28T08:04:43;101554.03;;;23.30;26.79
33414;BME280;60055;41.884;12.534;2023-04-28T08:07:09;101567.00;;;23.49;25.40
33414;BME280;60055;41.884;12.534;2023-04-28T08:09:34;101565.53;;;24.02;24.78
33414;BME280;60055;41.884;12.534;2023-04-28T08:12:00;101555.25;;;24.51;23.68
33414;BME280;60055;41.884;12.534;2023-04-28T08:14:26;101570.66;;;23.82;22.38
33414;BME280;60055;41.884;12.534;2023-04-28T08:16:52;101567.81;;;23.84;22.32
33414;BME280;60055;41.884;12.534;2023-04-28T08:19:17;101563.06;;;23.87;22.38
33414;BME280;60055;41.884;12.534;2023-04-28T08:21:43;101554.59;;;23.22;24.48
33414;BME280;60055;41.884;12.534;2023-04-28T08:24:08;101555.59;;;24.02;23.08
33414;BME280;60055;41.884;12.534;2023-04-28T08:26:35;101549.00;;;24.06;24.25
33414;BME280;60055;41.884;12.534;2023-04-28T08:29:01;101555.53;;;24.26;22.98
33414;BME280;60055;41.884;12.534;2023-04-28T08:31:26;101552.50;;;23.84;24.28
33414;BME280;60055;41.884;12.534;2023-04-28T08:33:52;101554.88;;;24.11;23.68
33414;BME280;60055;41.884;12.534;2023-04-28T08:36:17;101551.81;;;24.49;24.34
33414;BME280;60055;41.884;12.534;2023-04-28T08:38:59;101554.03;;;24.44;24.26
33414;BME280;60055;41.884;12.534;2023-04-28T08:41:25;101558.06;;;24.83;24.18
33414;BME280;60055;41.884;12.534;2023-04-28T08:43:52;101564.13;;;24.20;23.96
33414;BME280;60055;41.884;12.534;2023-04-28T08:46:20;101553.91;;;24.46;24.15
33414;BME280;60055;41.884;12.534;2023-04-28T08:48:48;101552.44;;;24.41;25.02
33414;BME280;60055;41.884;12.534;2023-04-28T08:51:15;101560.16;;;24.24;24.11
33414;BME280;60055;41.884;12.534;2023-04-28T08:53:48;101561.88;;;24.14;24.85
33414;BME280;60055;41.884;12.534;2023-04-28T08:56:16;101557.34;;;24.48;25.46
33414;BME280;60055;41.884;12.534;2023-04-28T08:58:42;101550.81;;;24.06;24.58
33414;BME280;60055;41.884;12.534;2023-04-28T09:01:08;101548.97;;;23.95;25.52
33414;BME280;60055;41.884;12.534;2023-04-28T09:03:33;101540.75;;;24.08;26.26
33414;BME280;60055;41.884;12.534;2023-04-28T09:06:00;101558.53;;;23.88;26.14
33414;BME280;60055;41.884;12.534;2023-04-28T09:08:26;101553.53;;;24.17;25.89
33414;BME280;60055;41.884;12.534;2023-04-28T09:11:08;101543.59;;;24.17;26.42
33414;BME280;60055;41.884;12.534;2023-04-28T09:13:34;101548.94;;;23.84;26.54
33414;BME280;60055;41.884;12.534;2023-04-28T09:16:01;101549.44;;;24.00;26.80
33414;BME280;60055;41.884;12.534;2023-04-28T09:18:30;101535.81;;;23.68;26.55
33414;BME280;60055;41.884;12.534;2023-04-28T09:21:06;101541.34;;;24.00;25.27
33414;BME280;60055;41.884;12.534;2023-04-28T09:23:32;101538.22;;;24.17;25.04
33414;BME280;60055;41.884;12.534;2023-04-28T09:28:23;101538.78;;;24.10;22.78
33414;BME280;60055;41.884;12.534;2023-04-28T09:30:49;101532.78;;;24.51;22.13
33414;BME280;60055;41.884;12.534;2023-04-28T09:33:14;101546.03;;;23.98;21.75
33414;BME280;60055;41.884;12.534;2023-04-28T09:35:43;101527.53;;;24.27;21.71
33414;BME280;60055;41.884;12.534;2023-04-28T09:38:13;101534.97;;;23.79;21.34
33414;BME280;60055;41.884;12.534;2023-04-28T09:43:42;101530.56;;;23.78;22.66
33414;BME280;60055;41.884;12.534;2023-04-28T09:46:08;101535.25;;;24.09;22.18
33414;BME280;60055;41.884;12.534;2023-04-28T09:48:35;101534.13;;;24.12;21.56
33414;BME280;60055;41.884;12.534;2023-04-28T09:51:03;101537.34;;;24.17;21.75
33414;BME280;60055;41.884;12.534;2023-04-28T09:53:30;101534.03;;;24.24;22.34
33414;BME280;60055;41.884;12.534;2023-04-28T09:55:58;101528.41;;;24.16;22.57
33414;BME280;60055;41.884;12.534;2023-04-28T09:58:25;101525.16;;;24.00;22.27
33414;BME280;60055;41.884;12.534;2023-04-28T10:01:00;101525.28;;;24.10;22.90
33414;BME280;60055;41.884;12.534;2023-04-28T10:03:27;101523.00;;;24.38;22.99
33414;BME280;60055;41.884;12.534;2023-04-28T10:05:54;101523.22;;;24.13;23.21
33414;BME280;60055;41.884;12.534;2023-04-28T10:08:21;101524.34;;;24.22;22.62
33414;BME280;60055;41.884;12.534;2023-04-28T10:10:48;101523.13;;;24.15;21.63
33414;BME280;60055;41.884;12.534;2023-04-28T10:13:18;101517.06;;;24.11;21.98
33414;BME280;60055;41.884;12.534;2023-04-28T10:15:44;101515.66;;;24.18;22.50
33414;BME280;60055;41.884;12.534;2023-04-28T10:18:14;101509.09;;;24.10;23.20
33414;BME280;60055;41.884;12.534;2023-04-28T10:20:44;101499.53;;;23.83;21.88
33414;BME280;60055;41.884;12.534;2023-04-28T10:25:56;101503.22;;;24.05;22.10
33414;BME280;60055;41.884;12.534;2023-04-28T10:28:24;101496.25;;;24.02;21.30
33414;BME280;60055;41.884;12.534;2023-04-28T10:31:16;101497.72;;;24.06;21.47
33414;BME280;60055;41.884;12.534;2023-04-28T10:33:42;101517.06;;;24.00;21.63
33414;BME280;60055;41.884;12.534;2023-04-28T10:36:08;101520.50;;;23.91;21.18
33414;BME280;60055;41.884;12.534;2023-04-28T10:38:34;101512.16;;;23.94;21.82
33414;BME280;60055;41.884;12.534;2023-04-28T10:41:00;101513.13;;;23.71;22.47
33414;BME280;60055;41.884;12.534;2023-04-28T10:56:16;101496.78;;;23.50;23.47
33414;BME280;60055;41.884;12.534;2023-04-28T11:03:50;101490.75;;;23.47;24.60
33414;BME280;60055;41.884;12.534;2023-04-28T11:06:34;101493.88;;;23.64;25.26
33414;BME280;60055;41.884;12.534;2023-04-28T11:11:36;101490.53;;;23.50;25.39
33414;BME280;60055;41.884;12.534;2023-04-28T11:14:33;101489.28;;;23.42;25.53
33414;BME280;60055;41.884;12.534;2023-04-28T11:17:06;101489.28;;;23.08;24.50
33414;BME280;60055;41.884;12.534;2023-04-28T11:19:39;101478.69;;;23.28;24.16
33414;BME280;60055;41.884;12.534;2023-04-28T11:22:17;101469.03;;;23.37;22.56
33414;BME280;60055;41.884;12.534;2023-04-28T11:24:55;101465.78;;;23.45;22.90
33414;BME280;60055;41.884;12.534;2023-04-28T11:27:25;101476.44;;;23.57;23.48
33414;BME280;60055;41.884;12.534;2023-04-28T11:29:51;101467.41;;;23.58;23.62
33414;BME280;60055;41.884;12.534;2023-04-28T11:32:25;101460.38;;;23.56;23.31
33414;BME280;60055;41.884;12.534;2023-04-28T11:34:51;101475.03;;;23.75;22.85
33414;BME280;60055;41.884;12.534;2023-04-28T11:37:16;101479.91;;;23.70;23.06
33414;BME280;60055;41.884;12.534;2023-04-28T11:39:42;101473.41;;;23.73;22.29
33414;BME280;60055;41.884;12.534;2023-04-28T11:42:10;101462.16;;;23.79;21.00
33414;BME280;60055;41.884;12.534;2023-04-28T11:44:36;101458.44;;;23.80;22.10
33414;BME280;60055;41.884;12.534;2023-04-28T11:47:03;101473.19;;;23.76;22.83
33414;BME280;60055;41.884;12.534;2023-04-28T11:49:31;101463.47;;;23.62;21.74
33414;BME280;60055;41.884;12.534;2023-04-28T11:52:06;101460.19;;;23.81;21.19
33414;BME280;60055;41.884;12.534;2023-04-28T11:54:34;101468.97;;;23.61;20.59
33414;BME280;60055;41.884;12.534;2023-04-28T11:57:00;101467.28;;;23.82;20.67
33414;BME280;60055;41.884;12.534;2023-04-28T11:59:30;101460.81;;;23.96;20.70
33414;BME280;60055;41.884;12.534;2023-04-28T12:02:03;101449.91;;;24.19;21.15
33414;BME280;60055;41.884;12.534;2023-04-28T12:06:59;101460.44;;;24.22;21.77
33414;BME280;60055;41.884;12.534;2023-04-28T12:09:24;101456.75;;;24.01;21.20
33414;BME280;60055;41.884;12.534;2023-04-28T12:12:00;101456.34;;;24.39;21.37
33414;BME280;60055;41.884;12.534;2023-04-28T12:14:27;101461.91;;;24.26;22.07
33414;BME280;60055;41.884;12.534;2023-04-28T12:16:53;101452.56;;;24.30;22.09
33414;BME280;60055;41.884;12.534;2023-04-28T12:19:19;101449.59;;;24.33;21.66
33414;BME280;60055;41.884;12.534;2023-04-28T12:22:04;101459.69;;;24.31;20.92
33414;BME280;60055;41.884;12.534;2023-04-28T12:24:31;101451.13;;;24.15;20.69
33414;BME280;60055;41.884;12.534;2023-04-28T12:27:15;101451.59;;;24.20;20.63
33414;BME280;60055;41.884;12.534;2023-04-28T12:29:42;101444.47;;;24.30;20.47
33414;BME280;60055;41.884;12.534;2023-04-28T12:32:09;101447.50;;;24.37;20.23
33414;BME280;60055;41.884;12.534;2023-04-28T12:34:36;101450.88;;;24.29;19.72
33414;BME280;60055;41.884;12.534;2023-04-28T12:37:03;101454.78;;;24.25;18.74
33414;BME280;60055;41.884;12.534;2023-04-28T12:39:31;101448.72;;;24.44;18.72
33414;BME280;60055;41.884;12.534;2023-04-28T12:41:57;101452.09;;;24.14;19.45
33414;BME280;60055;41.884;12.534;2023-04-28T12:44:33;101438.34;;;24.28;19.19
33414;BME280;60055;41.884;12.534;2023-04-28T12:47:08;101443.75;;;24.28;19.80
33414;BME280;60055;41.884;12.534;2023-04-28T12:49:35;101441.88;;;24.40;19.13
33414;BME280;60055;41.884;12.534;2023-04-28T12:52:01;101435.38;;;24.42;19.43
33414;BME280;60055;41.884;12.534;2023-04-28T12:54:27;101428.50;;;24.38;19.35
33414;BME280;60055;41.884;12.534;2023-04-28T12:56:52;101424.91;;;24.49;19.69
33414;BME280;60055;41.884;12.534;2023-04-28T12:59:22;101433.66;;;24.73;19.19
33414;BME280;60055;41.884;12.534;2023-04-28T13:01:48;101428.13;;;24.75;19.38
33414;BME280;60055;41.884;12.534;2023-04-28T13:04:14;101434.19;;;24.99;19.09
33414;BME280;60055;41.884;12.534;2023-04-28T13:06:40;101424.47;;;24.65;17.79
33414;BME280;60055;41.884;12.534;2023-04-28T13:09:11;101430.31;;;24.49;18.88
33414;BME280;60055;41.884;12.534;2023-04-28T13:11:38;101429.88;;;24.65;17.90